South Walden, Vermont
Current Conditions -  °F | °C
As of 7:35 PM on Tuesday 25 Nov 2014 (Local Time) from KCDA Reporting Station
Scattered Clouds Scattered Clouds  
Wind Chill: 32°   Ceiling: Unl
Heat Index: 37°   Visibility: 10mi
Dew Point: 22°   Wind: 6mph
Humidity: 55%   Direction: 150°SSE
Pressure: 29.96"   Gusts: NA
Location:  44.5213°N, 72.3604°W
Report Text: KCDA 260035Z AUTO 15005KT 10SM SCT060 03/M05 A2996 RMK AO2 T00281055
Loading
Personal Weather Stations






























Interactive Weather Map New forecast layout! Learn more

10-Day Weather Forecast

Advertisements
Track Severe Weather on mobile